Time;durP1;ratioP1;P1;durP2;ratioP2;P2;SDS_P1;SDS_P2;PMS_P1;PMS_P2;Temp;Humidity;BMP_temperature;BMP_pressure;BME280_temperature;BME280_humidity;BME280_pressure;Samples;Min_cycle;Max_cycle;Signal;HPM_P1;HPM_P2
2022/01/26 00:00:55;;;;;;;25.45;18.90;;;;;;;;;;5119834;27;24417;-59
2022/01/26 00:06:09;;;;;;;28.00;19.48;;;;;;;;;;5120682;27;24966;-58
2022/01/26 00:08:35;;;;;;;29.98;19.98;;;;;;;;;;5121359;27;24470;-59
2022/01/26 00:11:00;;;;;;;26.25;19.35;;;;;;;;;;5125534;27;24560;-59
2022/01/26 00:13:25;;;;;;;28.83;20.03;;;;;;;;;;5122823;27;24445;-58
2022/01/26 00:15:51;;;;;;;28.13;19.10;;;;;;;;;;5124555;27;24566;-58
2022/01/26 00:18:19;;;;;;;28.75;20.52;;;;;;;;;;5125359;27;24460;-59
2022/01/26 00:20:53;;;;;;;25.92;19.20;;;;;;;;;;5124207;27;24421;-58
2022/01/26 00:23:36;;;;;;;28.33;20.25;;;;;;;;;;5125649;27;24433;-58
2022/01/26 00:26:23;;;;;;;31.88;22.58;;;;;;;;;;5118168;27;24433;-59
2022/01/26 00:29:09;;;;;;;26.47;19.37;;;;;;;;;;5125354;27;24431;-59
2022/01/26 00:39:53;;;;;;;25.63;19.25;;;;;;;;;;5123120;28;24440;-58
2022/01/26 00:42:19;;;;;;;25.40;19.00;;;;;;;;;;5120904;28;25025;-58
2022/01/26 00:44:47;;;;;;;27.93;19.23;;;;;;;;;;5124684;28;24505;-58
2022/01/26 00:47:12;;;;;;;25.90;19.10;;;;;;;;;;5111910;28;24500;-58
2022/01/26 00:49:37;;;;;;;25.07;18.80;;;;;;;;;;5121798;28;25047;-58
2022/01/26 00:52:06;;;;;;;25.73;19.10;;;;;;;;;;5125521;28;24470;-58
2022/01/26 00:54:31;;;;;;;25.63;18.83;;;;;;;;;;5121763;28;24420;-58
2022/01/26 00:56:56;;;;;;;29.63;21.97;;;;;;;;;;5125598;28;24428;-59
2022/01/26 00:59:22;;;;;;;28.77;20.25;;;;;;;;;;5123780;28;24424;-58
2022/01/26 01:01:47;;;;;;;27.90;21.07;;;;;;;;;;5122531;28;24421;-58
2022/01/26 01:04:12;;;;;;;25.73;19.60;;;;;;;;;;5123947;27;24982;-58
2022/01/26 01:06:46;;;;;;;31.30;21.70;;;;;;;;;;5131342;27;24432;-59
2022/01/26 01:09:11;;;;;;;29.35;21.80;;;;;;;;;;5129893;27;24984;-58
2022/01/26 01:11:36;;;;;;;24.80;18.67;;;;;;;;;;5129217;27;24451;-59
2022/01/26 01:14:02;;;;;;;26.52;19.70;;;;;;;;;;5128860;27;24452;-60
2022/01/26 01:16:28;;;;;;;28.97;21.47;;;;;;;;;;5124354;27;24432;-59
2022/01/26 01:19:02;;;;;;;24.15;18.40;;;;;;;;;;5126403;27;25022;-59
2022/01/26 01:22:03;;;;;;;28.17;20.20;;;;;;;;;;5128370;27;24932;-58
2022/01/26 01:27:24;;;;;;;28.20;19.90;;;;;;;;;;5125269;27;24504;-59
2022/01/26 01:30:56;;;;;;;23.65;18.25;;;;;;;;;;5128557;27;24416;-59
2022/01/26 01:33:04;;;;;;;26.05;18.20;;;;;;;;;;5119028;27;24404;-60
2022/01/26 01:35:32;;;;;;;26.55;18.80;;;;;;;;;;5119466;27;24406;-59
2022/01/26 01:37:58;;;;;;;25.83;19.25;;;;;;;;;;5126575;27;24513;-59
2022/01/26 01:40:24;;;;;;;23.08;18.05;;;;;;;;;;5128764;27;24420;-59
2022/01/26 01:42:49;;;;;;;24.07;18.80;;;;;;;;;;5128265;27;24417;-59
2022/01/26 01:45:14;;;;;;;26.23;18.40;;;;;;;;;;5128463;27;24466;-59
2022/01/26 01:47:39;;;;;;;22.13;17.60;;;;;;;;;;5128368;27;24953;-59
2022/01/26 01:50:10;;;;;;;25.67;19.52;;;;;;;;;;5127579;27;24409;-58
2022/01/26 01:52:35;;;;;;;24.75;19.38;;;;;;;;;;5123247;27;24409;-59
2022/01/26 01:55:04;;;;;;;23.37;17.80;;;;;;;;;;5127985;27;25197;-58
2022/01/26 01:57:30;;;;;;;22.70;17.90;;;;;;;;;;5123413;27;25537;-58
2022/01/26 01:59:55;;;;;;;21.65;17.02;;;;;;;;;;5127252;27;24435;-58
2022/01/26 02:02:20;;;;;;;23.20;17.13;;;;;;;;;;5126789;27;25142;-58
2022/01/26 02:04:45;;;;;;;22.87;18.53;;;;;;;;;;5130471;27;24492;-58
2022/01/26 02:07:11;;;;;;;23.93;18.60;;;;;;;;;;5126959;27;24390;-58
2022/01/26 02:09:37;;;;;;;22.45;17.23;;;;;;;;;;5122398;27;24409;-59
2022/01/26 02:12:10;;;;;;;20.73;16.50;;;;;;;;;;5125541;27;25009;-59
2022/01/26 02:14:41;;;;;;;22.90;18.02;;;;;;;;;;5127734;27;24501;-58
2022/01/26 02:17:38;;;;;;;20.75;16.60;;;;;;;;;;5127534;27;24822;-58
2022/01/26 02:20:45;;;;;;;23.23;17.83;;;;;;;;;;5126472;27;24432;-58
2022/01/26 02:49:31;;;;;;;22.90;17.20;;;;;;;;;;5121546;27;24525;-58
2022/01/26 02:55:53;;;;;;;22.27;17.50;;;;;;;;;;5126496;27;24411;-58
2022/01/26 03:01:25;;;;;;;22.08;17.98;;;;;;;;;;5109211;27;24432;-57
2022/01/26 03:04:12;;;;;;;22.10;17.15;;;;;;;;;;5126671;27;25342;-57
2022/01/26 03:07:25;;;;;;;21.92;17.38;;;;;;;;;;5126538;27;24439;-57
2022/01/26 03:09:31;;;;;;;20.70;16.98;;;;;;;;;;5101368;27;24429;-58
2022/01/26 03:11:58;;;;;;;20.40;15.00;;;;;;;;;;5125988;27;24472;-57
2022/01/26 03:16:58;;;;;;;18.70;15.43;;;;;;;;;;5121275;27;25144;-57
2022/01/26 03:19:37;;;;;;;19.25;15.55;;;;;;;;;;5121171;27;24417;-58
2022/01/26 03:35:27;;;;;;;18.45;15.45;;;;;;;;;;5123505;27;24442;-58
2022/01/26 03:37:55;;;;;;;19.23;15.85;;;;;;;;;;5122317;27;24472;-58
2022/01/26 03:40:28;;;;;;;17.47;14.50;;;;;;;;;;5121907;27;25369;-57
2022/01/26 03:42:53;;;;;;;16.42;13.85;;;;;;;;;;5127408;27;24819;-58
2022/01/26 03:45:18;;;;;;;18.58;14.98;;;;;;;;;;5124153;27;24524;-59
2022/01/26 03:47:44;;;;;;;17.50;15.00;;;;;;;;;;5122496;27;24432;-59
2022/01/26 03:50:10;;;;;;;17.02;13.90;;;;;;;;;;5123245;27;24425;-58
2022/01/26 03:52:35;;;;;;;16.20;13.90;;;;;;;;;;5114404;27;24825;-58
2022/01/26 03:55:00;;;;;;;16.73;14.15;;;;;;;;;;5124758;27;24970;-59
2022/01/26 03:57:25;;;;;;;17.95;14.70;;;;;;;;;;5116899;27;24823;-59
2022/01/26 03:59:51;;;;;;;18.20;14.77;;;;;;;;;;5122908;27;24482;-58
2022/01/26 04:02:16;;;;;;;17.50;13.97;;;;;;;;;;5125106;27;24444;-59
2022/01/26 04:04:48;;;;;;;16.65;14.40;;;;;;;;;;5117263;27;24425;-58
2022/01/26 04:07:13;;;;;;;16.95;13.60;;;;;;;;;;5118101;27;24488;-58
2022/01/26 04:09:38;;;;;;;17.47;14.17;;;;;;;;;;5120112;27;24417;-59
2022/01/26 04:12:04;;;;;;;17.75;14.75;;;;;;;;;;5124990;27;24500;-59
2022/01/26 04:14:32;;;;;;;16.47;13.77;;;;;;;;;;5117127;27;24429;-59
2022/01/26 04:16:57;;;;;;;17.73;14.65;;;;;;;;;;5122497;27;24966;-58
2022/01/26 04:19:24;;;;;;;17.00;14.30;;;;;;;;;;5123756;27;24436;-59
2022/01/26 04:26:48;;;;;;;16.73;14.03;;;;;;;;;;5124131;27;24824;-58
2022/01/26 04:29:23;;;;;;;17.77;14.43;;;;;;;;;;5115121;27;24429;-58
2022/01/26 04:31:48;;;;;;;17.23;14.23;;;;;;;;;;5124063;27;24428;-58
2022/01/26 04:34:13;;;;;;;18.00;14.80;;;;;;;;;;5117183;27;24425;-58
2022/01/26 04:36:54;;;;;;;20.20;16.37;;;;;;;;;;5123235;27;24427;-58
2022/01/26 04:39:25;;;;;;;14.73;13.20;;;;;;;;;;5124723;27;24896;-59
2022/01/26 04:41:57;;;;;;;19.30;14.90;;;;;;;;;;5123789;28;24417;-58
2022/01/26 04:44:25;;;;;;;16.92;14.13;;;;;;;;;;5124093;28;25018;-58
2022/01/26 04:46:51;;;;;;;17.00;14.10;;;;;;;;;;5121292;28;24814;-58
2022/01/26 04:49:17;;;;;;;13.95;12.40;;;;;;;;;;5125131;28;25023;-58
2022/01/26 04:51:42;;;;;;;17.33;14.25;;;;;;;;;;5123614;28;25004;-58
2022/01/26 04:54:08;;;;;;;15.93;13.77;;;;;;;;;;5126383;28;24974;-58
2022/01/26 04:56:33;;;;;;;16.00;13.27;;;;;;;;;;5126091;28;25217;-58
2022/01/26 04:58:58;;;;;;;14.45;12.95;;;;;;;;;;5126876;28;25029;-59
2022/01/26 05:01:23;;;;;;;15.93;13.90;;;;;;;;;;5123190;28;24815;-59
2022/01/26 05:03:48;;;;;;;17.13;14.00;;;;;;;;;;5117197;28;24836;-59
2022/01/26 05:06:13;;;;;;;17.08;13.93;;;;;;;;;;5122431;28;25038;-58
2022/01/26 05:08:39;;;;;;;15.40;13.00;;;;;;;;;;5126341;28;24424;-58
2022/01/26 05:11:06;;;;;;;18.20;14.60;;;;;;;;;;5124997;28;24412;-58
2022/01/26 05:13:31;;;;;;;14.90;13.30;;;;;;;;;;5119431;28;24508;-58
2022/01/26 05:15:56;;;;;;;17.77;13.73;;;;;;;;;;5124593;28;25010;-58
2022/01/26 05:18:23;;;;;;;19.13;15.23;;;;;;;;;;5125936;28;24581;-58
2022/01/26 05:20:49;;;;;;;18.30;15.18;;;;;;;;;;5118842;28;24971;-59
2022/01/26 05:23:14;;;;;;;19.60;16.70;;;;;;;;;;5125684;28;24440;-59
2022/01/26 05:25:40;;;;;;;17.65;14.48;;;;;;;;;;5125193;28;24499;-59
2022/01/26 05:28:05;;;;;;;18.38;15.30;;;;;;;;;;5126220;28;24445;-59
2022/01/26 05:30:30;;;;;;;17.83;15.05;;;;;;;;;;5125712;28;24455;-59
2022/01/26 05:32:55;;;;;;;18.25;15.07;;;;;;;;;;5119801;28;24482;-58
2022/01/26 05:35:20;;;;;;;21.08;16.02;;;;;;;;;;5122523;28;25256;-58
2022/01/26 05:37:46;;;;;;;17.30;14.40;;;;;;;;;;5115187;28;24438;-59
2022/01/26 05:40:12;;;;;;;16.07;14.33;;;;;;;;;;5121357;28;24987;-59
2022/01/26 05:42:37;;;;;;;19.40;16.60;;;;;;;;;;5119503;28;24423;-59
2022/01/26 05:45:05;;;;;;;19.80;16.43;;;;;;;;;;5121208;28;24470;-59
2022/01/26 05:47:34;;;;;;;19.17;15.63;;;;;;;;;;5118927;28;24417;-59
2022/01/26 05:50:00;;;;;;;17.83;14.82;;;;;;;;;;5120012;27;24413;-59
2022/01/26 05:52:25;;;;;;;18.40;15.05;;;;;;;;;;5126123;27;24413;-59
2022/01/26 05:54:50;;;;;;;19.60;15.87;;;;;;;;;;5127558;27;25285;-59
2022/01/26 05:57:16;;;;;;;18.05;15.35;;;;;;;;;;5121237;27;24417;-59
2022/01/26 05:59:41;;;;;;;18.63;16.17;;;;;;;;;;5125429;27;24435;-59
2022/01/26 06:02:06;;;;;;;20.67;17.53;;;;;;;;;;5125906;27;24521;-59
2022/01/26 06:04:31;;;;;;;19.30;16.50;;;;;;;;;;5125797;27;24516;-59
2022/01/26 06:06:57;;;;;;;21.23;17.83;;;;;;;;;;5126316;27;24396;-59
2022/01/26 06:09:23;;;;;;;20.92;16.20;;;;;;;;;;5126013;27;24440;-60
2022/01/26 06:11:48;;;;;;;18.15;15.35;;;;;;;;;;5123822;27;25034;-59
2022/01/26 06:14:13;;;;;;;20.87;17.03;;;;;;;;;;5121076;27;24409;-59
2022/01/26 06:16:38;;;;;;;19.33;15.80;;;;;;;;;;5120840;27;25313;-59
2022/01/26 06:19:03;;;;;;;19.93;17.40;;;;;;;;;;5120583;27;24442;-59
2022/01/26 06:21:28;;;;;;;19.80;16.20;;;;;;;;;;5123343;27;24424;-58
2022/01/26 06:23:54;;;;;;;19.90;17.03;;;;;;;;;;5124875;27;24425;-58
2022/01/26 06:26:19;;;;;;;20.33;17.10;;;;;;;;;;5123641;27;25174;-58
2022/01/26 06:28:44;;;;;;;21.87;17.87;;;;;;;;;;5122333;27;24784;-58
2022/01/26 06:31:11;;;;;;;18.23;16.17;;;;;;;;;;5116512;27;24417;-58
2022/01/26 06:33:40;;;;;;;20.33;17.02;;;;;;;;;;5119948;27;24509;-58
2022/01/26 06:36:05;;;;;;;19.15;16.52;;;;;;;;;;5120947;27;24405;-58
2022/01/26 06:38:30;;;;;;;20.40;17.20;;;;;;;;;;5117779;27;24464;-58
2022/01/26 06:40:56;;;;;;;20.00;17.03;;;;;;;;;;5120043;27;24429;-58
2022/01/26 06:43:23;;;;;;;21.33;17.42;;;;;;;;;;5124879;27;24431;-58
2022/01/26 06:45:58;;;;;;;20.60;16.75;;;;;;;;;;5122108;27;25261;-58
2022/01/26 06:51:07;;;;;;;18.90;16.52;;;;;;;;;;5121964;27;24441;-60
2022/01/26 06:53:32;;;;;;;18.50;16.13;;;;;;;;;;5123630;27;24441;-61
2022/01/26 06:55:57;;;;;;;18.97;16.93;;;;;;;;;;5125401;27;24564;-58
2022/01/26 06:58:23;;;;;;;21.20;18.55;;;;;;;;;;5121147;27;24482;-58
2022/01/26 07:00:48;;;;;;;22.83;18.88;;;;;;;;;;5110995;27;25019;-58
2022/01/26 07:03:13;;;;;;;24.17;20.70;;;;;;;;;;5121099;27;24899;-58
2022/01/26 07:05:38;;;;;;;20.60;17.20;;;;;;;;;;5125389;27;24989;-58
2022/01/26 07:08:04;;;;;;;19.60;17.10;;;;;;;;;;5123061;27;24478;-59
2022/01/26 07:10:29;;;;;;;19.27;17.20;;;;;;;;;;5124857;27;24416;-58
2022/01/26 07:12:54;;;;;;;20.03;17.00;;;;;;;;;;5113125;27;24460;-59
2022/01/26 07:23:29;;;;;;;19.70;16.97;;;;;;;;;;5116466;27;25372;-59
2022/01/26 07:25:54;;;;;;;18.07;15.53;;;;;;;;;;5119710;27;24421;-59
2022/01/26 07:28:19;;;;;;;18.17;15.80;;;;;;;;;;5119915;27;24432;-59
2022/01/26 07:30:45;;;;;;;16.67;14.60;;;;;;;;;;5122689;27;24454;-59
2022/01/26 07:33:10;;;;;;;17.33;14.73;;;;;;;;;;5117148;27;24428;-63
2022/01/26 07:35:35;;;;;;;16.77;13.30;;;;;;;;;;5117054;27;24413;-61
2022/01/26 07:38:02;;;;;;;15.23;13.60;;;;;;;;;;5124443;27;24859;-60
2022/01/26 07:40:28;;;;;;;17.42;14.32;;;;;;;;;;5126150;27;24413;-60
2022/01/26 07:42:53;;;;;;;14.33;12.83;;;;;;;;;;5122294;27;24436;-58
2022/01/26 07:45:19;;;;;;;13.67;12.13;;;;;;;;;;5127369;27;25003;-60
2022/01/26 07:47:44;;;;;;;12.63;11.43;;;;;;;;;;5118383;27;24947;-59
2022/01/26 07:50:12;;;;;;;13.45;11.70;;;;;;;;;;5122442;27;24535;-58
2022/01/26 07:52:40;;;;;;;12.48;11.20;;;;;;;;;;5124002;27;24821;-59
2022/01/26 07:55:06;;;;;;;14.10;12.70;;;;;;;;;;5124240;27;24450;-58
2022/01/26 07:57:31;;;;;;;14.20;12.70;;;;;;;;;;5120532;27;24508;-58
2022/01/26 07:59:56;;;;;;;13.00;11.53;;;;;;;;;;5125596;27;24500;-59
2022/01/26 08:02:21;;;;;;;13.57;12.07;;;;;;;;;;5118903;27;24419;-59
2022/01/26 08:04:47;;;;;;;12.90;11.60;;;;;;;;;;5112819;27;24416;-58
2022/01/26 08:07:12;;;;;;;12.85;11.05;;;;;;;;;;5113135;27;24417;-59
2022/01/26 08:09:43;;;;;;;14.03;12.10;;;;;;;;;;5126911;27;24482;-59
2022/01/26 08:12:08;;;;;;;12.38;11.05;;;;;;;;;;5126802;27;24787;-59
2022/01/26 08:14:33;;;;;;;13.77;12.27;;;;;;;;;;5127338;27;24541;-59
2022/01/26 08:16:59;;;;;;;12.70;11.40;;;;;;;;;;5127305;27;24389;-59
2022/01/26 08:19:24;;;;;;;13.27;11.35;;;;;;;;;;5126888;27;24463;-59
2022/01/26 08:21:49;;;;;;;13.60;12.15;;;;;;;;;;5127118;27;24810;-59
2022/01/26 08:24:15;;;;;;;12.07;10.85;;;;;;;;;;5126340;27;24471;-59
2022/01/26 08:26:44;;;;;;;13.90;11.40;;;;;;;;;;5112484;28;24931;-58
2022/01/26 08:29:21;;;;;;;12.23;10.68;;;;;;;;;;5126837;27;24436;-59
2022/01/26 08:31:46;;;;;;;11.63;10.43;;;;;;;;;;5126874;27;24484;-59
2022/01/26 08:34:11;;;;;;;12.07;10.07;;;;;;;;;;5125216;27;24508;-59
2022/01/26 08:36:36;;;;;;;9.60;8.60;;;;;;;;;;5124371;27;24409;-58
2022/01/26 08:39:02;;;;;;;10.50;9.50;;;;;;;;;;5126543;27;25029;-58
2022/01/26 08:41:27;;;;;;;11.20;9.90;;;;;;;;;;5126085;27;24445;-58
2022/01/26 08:43:53;;;;;;;10.10;8.83;;;;;;;;;;5126622;28;24409;-59
2022/01/26 08:46:18;;;;;;;10.97;9.87;;;;;;;;;;5126707;28;24422;-58
2022/01/26 08:48:43;;;;;;;10.50;9.40;;;;;;;;;;5126552;28;24421;-59
2022/01/26 08:51:08;;;;;;;11.30;9.52;;;;;;;;;;5126084;28;24821;-59
2022/01/26 08:53:33;;;;;;;10.57;9.38;;;;;;;;;;5121228;28;25009;-58
2022/01/26 08:55:58;;;;;;;12.20;9.00;;;;;;;;;;5124434;28;24440;-59
2022/01/26 08:58:23;;;;;;;10.20;9.20;;;;;;;;;;5124032;28;24469;-59
2022/01/26 09:00:49;;;;;;;9.70;8.70;;;;;;;;;;5126071;28;24421;-59
2022/01/26 09:03:14;;;;;;;11.33;9.90;;;;;;;;;;5126020;28;24562;-59
2022/01/26 09:05:39;;;;;;;10.95;9.70;;;;;;;;;;5126027;28;24448;-58
2022/01/26 09:08:04;;;;;;;12.15;10.13;;;;;;;;;;5126259;28;24459;-59
2022/01/26 09:10:33;;;;;;;10.93;9.70;;;;;;;;;;5126395;28;24938;-58
2022/01/26 09:12:58;;;;;;;11.73;10.13;;;;;;;;;;5126543;28;24377;-58
2022/01/26 09:15:29;;;;;;;12.40;9.20;;;;;;;;;;5125360;28;24411;-59
2022/01/26 09:17:59;;;;;;;12.10;10.00;;;;;;;;;;5117215;28;24509;-59
2022/01/26 09:20:25;;;;;;;10.93;9.80;;;;;;;;;;5112722;28;24405;-59
2022/01/26 09:22:50;;;;;;;12.10;10.60;;;;;;;;;;5125247;28;24388;-59
2022/01/26 09:25:15;;;;;;;11.60;10.38;;;;;;;;;;5124446;27;24793;-59
2022/01/26 09:27:41;;;;;;;12.23;10.93;;;;;;;;;;5120406;27;24444;-59
2022/01/26 09:30:07;;;;;;;13.30;11.00;;;;;;;;;;5129086;27;24420;-59
2022/01/26 09:32:32;;;;;;;13.63;11.33;;;;;;;;;;5125849;27;24406;-59
2022/01/26 09:34:57;;;;;;;12.83;11.07;;;;;;;;;;5112618;27;24424;-59
2022/01/26 09:37:22;;;;;;;13.80;10.98;;;;;;;;;;5125316;27;24466;-59
2022/01/26 09:39:47;;;;;;;12.48;10.90;;;;;;;;;;5118538;27;24792;-59
2022/01/26 09:42:13;;;;;;;12.80;11.03;;;;;;;;;;5127329;27;24474;-59
2022/01/26 09:44:39;;;;;;;13.65;11.30;;;;;;;;;;5129833;27;24417;-59
2022/01/26 09:47:04;;;;;;;11.88;10.68;;;;;;;;;;5128640;27;24874;-59
2022/01/26 09:49:33;;;;;;;15.13;12.55;;;;;;;;;;5128509;27;25037;-59
2022/01/26 09:52:06;;;;;;;14.15;12.65;;;;;;;;;;5128094;27;24446;-58
2022/01/26 09:54:31;;;;;;;13.57;11.73;;;;;;;;;;5128930;27;24498;-58
2022/01/26 09:57:01;;;;;;;13.33;11.60;;;;;;;;;;5128624;27;24431;-59
2022/01/26 09:59:27;;;;;;;14.95;12.35;;;;;;;;;;5129170;27;24832;-57
2022/01/26 10:01:52;;;;;;;13.80;11.63;;;;;;;;;;5127218;27;25215;-57
2022/01/26 10:04:26;;;;;;;13.10;11.80;;;;;;;;;;5122755;27;24425;-59
2022/01/26 10:07:08;;;;;;;13.25;11.57;;;;;;;;;;5129680;27;24424;-58
2022/01/26 10:17:36;;;;;;;14.25;11.05;;;;;;;;;;5127988;27;24404;-57
2022/01/26 10:20:03;;;;;;;15.30;13.40;;;;;;;;;;5127746;27;24931;-59
2022/01/26 10:22:30;;;;;;;13.57;11.98;;;;;;;;;;5127585;27;24604;-58
2022/01/26 10:25:12;;;;;;;12.50;11.13;;;;;;;;;;5127105;27;24416;-59
2022/01/26 10:27:41;;;;;;;11.95;10.75;;;;;;;;;;5120885;27;24444;-59
2022/01/26 10:30:07;;;;;;;11.18;9.73;;;;;;;;;;5127760;27;25250;-59
2022/01/26 10:32:33;;;;;;;12.55;10.60;;;;;;;;;;5129030;27;24529;-59
2022/01/26 10:35:01;;;;;;;13.70;10.20;;;;;;;;;;5114711;27;25046;-59
2022/01/26 10:37:26;;;;;;;10.93;8.90;;;;;;;;;;5123805;27;24416;-59
2022/01/26 10:39:53;;;;;;;11.40;9.52;;;;;;;;;;5128111;27;24858;-59
2022/01/26 10:42:20;;;;;;;11.18;9.18;;;;;;;;;;5126652;27;24439;-59
2022/01/26 10:47:11;;;;;;;9.90;8.10;;;;;;;;;;5127389;27;24477;-59
2022/01/26 10:52:21;;;;;;;10.20;8.63;;;;;;;;;;5128486;27;24758;-59
2022/01/26 10:54:46;;;;;;;8.75;7.85;;;;;;;;;;5125715;27;24482;-59
2022/01/26 10:57:12;;;;;;;9.68;7.85;;;;;;;;;;5128635;27;24942;-59
2022/01/26 10:59:42;;;;;;;8.30;7.40;;;;;;;;;;5126622;27;24477;-59
2022/01/26 11:02:08;;;;;;;8.52;7.25;;;;;;;;;;5128211;27;25009;-59
2022/01/26 11:04:35;;;;;;;8.73;7.07;;;;;;;;;;5125242;27;24791;-60
2022/01/26 11:07:01;;;;;;;8.40;6.60;;;;;;;;;;5123526;27;24437;-58
2022/01/26 11:09:27;;;;;;;9.35;7.53;;;;;;;;;;5121718;27;24440;-58
2022/01/26 11:12:03;;;;;;;8.43;7.15;;;;;;;;;;5114374;27;24535;-58
2022/01/26 11:14:37;;;;;;;8.25;6.93;;;;;;;;;;5122240;27;24409;-59
2022/01/26 11:17:03;;;;;;;8.77;7.88;;;;;;;;;;5111856;27;24406;-58
2022/01/26 11:19:38;;;;;;;8.10;7.30;;;;;;;;;;5121577;27;24477;-58
2022/01/26 11:22:08;;;;;;;8.68;7.70;;;;;;;;;;5127866;27;24409;-58
2022/01/26 11:24:40;;;;;;;8.20;7.40;;;;;;;;;;5121651;27;24424;-58
2022/01/26 11:27:06;;;;;;;8.50;7.60;;;;;;;;;;5122659;27;24413;-58
2022/01/26 11:29:34;;;;;;;7.78;6.97;;;;;;;;;;5121073;27;24436;-58
2022/01/26 11:32:10;;;;;;;8.47;7.27;;;;;;;;;;5120710;27;24420;-58
2022/01/26 11:34:35;;;;;;;7.27;6.57;;;;;;;;;;5121169;27;24504;-59
2022/01/26 11:37:02;;;;;;;6.80;6.10;;;;;;;;;;5127808;27;25321;-57
2022/01/26 11:42:32;;;;;;;7.80;7.10;;;;;;;;;;5125646;27;24407;-57
2022/01/26 11:45:08;;;;;;;7.60;6.80;;;;;;;;;;5125939;27;24406;-59
2022/01/26 11:47:35;;;;;;;7.10;6.40;;;;;;;;;;5121834;27;24424;-59
2022/01/26 11:50:06;;;;;;;7.25;6.55;;;;;;;;;;5125037;27;24420;-59
2022/01/26 11:52:35;;;;;;;7.45;6.75;;;;;;;;;;5127137;27;24452;-59
2022/01/26 11:55:01;;;;;;;8.13;7.00;;;;;;;;;;5127321;27;24432;-59
2022/01/26 11:57:44;;;;;;;7.50;6.80;;;;;;;;;;5127262;27;25209;-59
2022/01/26 12:00:13;;;;;;;8.20;7.40;;;;;;;;;;5125118;27;24466;-58
2022/01/26 12:05:13;;;;;;;7.47;6.80;;;;;;;;;;5115682;27;24586;-59
2022/01/26 12:07:45;;;;;;;7.80;7.00;;;;;;;;;;5124944;27;24413;-58
2022/01/26 12:10:17;;;;;;;7.30;6.20;;;;;;;;;;5126336;27;24485;-58
2022/01/26 12:12:43;;;;;;;7.30;6.60;;;;;;;;;;5126717;27;24409;-58
2022/01/26 12:15:11;;;;;;;8.45;7.55;;;;;;;;;;5127314;27;24469;-59
2022/01/26 12:17:45;;;;;;;7.63;6.93;;;;;;;;;;5127025;27;24496;-59
2022/01/26 12:34:37;;;;;;;8.32;7.38;;;;;;;;;;5127118;27;24462;-58
2022/01/26 12:37:03;;;;;;;8.32;7.47;;;;;;;;;;5118576;27;24975;-59
2022/01/26 12:42:15;;;;;;;10.13;8.73;;;;;;;;;;5126714;27;24461;-59
2022/01/26 12:44:41;;;;;;;9.88;8.55;;;;;;;;;;5126715;28;24994;-59
2022/01/26 12:47:06;;;;;;;12.13;9.38;;;;;;;;;;5126598;28;24500;-58
2022/01/26 12:49:31;;;;;;;11.70;9.40;;;;;;;;;;5126702;28;24807;-59
2022/01/26 12:51:57;;;;;;;11.07;9.87;;;;;;;;;;5127106;28;24396;-59
2022/01/26 12:54:22;;;;;;;10.07;9.07;;;;;;;;;;5126667;28;24409;-59
2022/01/26 12:56:47;;;;;;;11.27;10.00;;;;;;;;;;5126246;28;24491;-59
2022/01/26 12:59:15;;;;;;;12.30;10.00;;;;;;;;;;5129120;27;24404;-59
2022/01/26 13:01:41;;;;;;;11.18;9.50;;;;;;;;;;5131036;27;24999;-59
2022/01/26 13:04:08;;;;;;;10.87;9.20;;;;;;;;;;5130902;27;24397;-59
2022/01/26 13:06:36;;;;;;;9.57;8.15;;;;;;;;;;5130687;27;24454;-59
2022/01/26 13:09:03;;;;;;;8.15;7.18;;;;;;;;;;5130888;27;24462;-58
2022/01/26 13:11:30;;;;;;;9.38;7.85;;;;;;;;;;5129894;27;24620;-59
2022/01/26 13:14:02;;;;;;;8.82;7.20;;;;;;;;;;5127409;27;24457;-59
2022/01/26 13:16:34;;;;;;;8.38;7.13;;;;;;;;;;5110203;28;24425;-59
2022/01/26 13:22:00;;;;;;;8.98;6.78;;;;;;;;;;5130296;27;24508;-59
2022/01/26 13:29:52;;;;;;;10.80;8.75;;;;;;;;;;5128687;27;24431;-59
2022/01/26 13:35:10;;;;;;;11.73;9.33;;;;;;;;;;5109517;28;24381;-59
2022/01/26 13:37:59;;;;;;;10.20;8.60;;;;;;;;;;5109335;28;24424;-59
2022/01/26 13:40:52;;;;;;;12.02;9.90;;;;;;;;;;5119992;27;25173;-59
2022/01/26 13:46:16;;;;;;;10.88;9.57;;;;;;;;;;5129606;27;24405;-58
2022/01/26 13:51:24;;;;;;;10.75;9.30;;;;;;;;;;5129670;27;24405;-59
2022/01/26 13:53:59;;;;;;;11.67;9.30;;;;;;;;;;5129711;27;24453;-60
2022/01/26 13:56:38;;;;;;;11.32;10.13;;;;;;;;;;5129836;27;24472;-59
2022/01/26 13:59:17;;;;;;;11.60;10.17;;;;;;;;;;5125534;27;24468;-58
2022/01/26 14:01:45;;;;;;;11.00;9.80;;;;;;;;;;5119146;27;24844;-58
2022/01/26 14:04:11;;;;;;;11.25;9.20;;;;;;;;;;5126945;27;24459;-58
2022/01/26 14:06:36;;;;;;;10.90;9.80;;;;;;;;;;5128245;27;25026;-58
2022/01/26 14:09:02;;;;;;;9.87;8.87;;;;;;;;;;5128685;27;24436;-58
2022/01/26 14:11:27;;;;;;;9.52;8.52;;;;;;;;;;5127468;27;24611;-58
2022/01/26 14:13:55;;;;;;;10.30;9.20;;;;;;;;;;5128780;27;24450;-58
2022/01/26 14:16:22;;;;;;;10.80;8.90;;;;;;;;;;5128202;27;24401;-58
2022/01/26 14:19:02;;;;;;;10.50;9.40;;;;;;;;;;5129101;27;24423;-58
2022/01/26 14:24:25;;;;;;;11.63;10.43;;;;;;;;;;5128409;27;24392;-58
2022/01/26 14:26:54;;;;;;;11.50;10.30;;;;;;;;;;5128252;27;24452;-58
2022/01/26 14:29:35;;;;;;;10.00;8.77;;;;;;;;;;5129093;27;24409;-58
2022/01/26 14:50:57;;;;;;;11.30;9.88;;;;;;;;;;5129192;27;24926;-58
2022/01/26 15:29:54;;;;;;;15.00;11.15;;;;;;;;;;5128305;27;24429;-58
2022/01/26 15:40:00;;;;;;;18.83;13.25;;;;;;;;;;5127388;27;24405;-58
2022/01/26 15:44:07;;;;;;;18.80;13.18;;;;;;;;;;5127708;27;24396;-57
2022/01/26 15:52:17;;;;;;;23.17;14.30;;;;;;;;;;5127586;27;24817;-58
2022/01/26 15:57:43;;;;;;;20.73;13.30;;;;;;;;;;5114909;27;24496;-59
2022/01/26 16:05:59;;;;;;;17.70;12.82;;;;;;;;;;5123935;27;24412;-59
2022/01/26 16:17:01;;;;;;;22.27;15.23;;;;;;;;;;5124046;27;25270;-58
2022/01/26 16:28:31;;;;;;;17.65;13.20;;;;;;;;;;5108539;27;24424;-59
2022/01/26 16:36:33;;;;;;;15.73;12.13;;;;;;;;;;5123752;27;24751;-59
2022/01/26 16:38:53;;;;;;;12.10;10.80;;;;;;;;;;5122943;27;24505;-59
2022/01/26 17:11:08;;;;;;;8.90;7.57;;;;;;;;;;5103368;28;24634;-59
2022/01/26 17:12:05;;;;;;;12.70;10.00;;;;;;;;;;5111513;28;25267;-60
2022/01/26 17:34:30;;;;;;;15.80;13.48;;;;;;;;;;5125798;28;24417;-59
2022/01/26 18:16:33;;;;;;;22.17;18.80;;;;;;;;;;5117815;27;24425;-60
2022/01/26 18:32:54;;;;;;;28.83;22.27;;;;;;;;;;5122233;27;24455;-59
2022/01/26 18:46:51;;;;;;;28.05;20.67;;;;;;;;;;5122651;27;24407;-59
2022/01/26 18:49:19;;;;;;;27.50;21.58;;;;;;;;;;5112997;27;24856;-59
2022/01/26 18:51:48;;;;;;;26.57;20.03;;;;;;;;;;5122831;27;24413;-59
2022/01/26 18:54:14;;;;;;;25.30;19.67;;;;;;;;;;5121910;27;24516;-58
2022/01/26 18:56:41;;;;;;;24.83;18.75;;;;;;;;;;5125261;27;24516;-59
2022/01/26 18:59:06;;;;;;;27.33;20.70;;;;;;;;;;5119148;27;24436;-58
2022/01/26 19:01:32;;;;;;;24.33;19.53;;;;;;;;;;5114075;27;24465;-59
2022/01/26 19:03:57;;;;;;;25.45;20.10;;;;;;;;;;5117482;27;24819;-60
2022/01/26 19:06:22;;;;;;;26.70;20.70;;;;;;;;;;5124869;27;24473;-57
2022/01/26 19:08:47;;;;;;;27.87;21.23;;;;;;;;;;5125251;27;24433;-58
2022/01/26 19:11:13;;;;;;;28.93;21.63;;;;;;;;;;5125049;27;24504;-57
2022/01/26 19:13:41;;;;;;;27.35;20.42;;;;;;;;;;5123870;27;24454;-58
2022/01/26 19:18:53;;;;;;;27.63;20.55;;;;;;;;;;5124551;27;24413;-59
2022/01/26 19:21:36;;;;;;;27.65;21.48;;;;;;;;;;5125029;27;24500;-59
2022/01/26 19:24:41;;;;;;;38.60;26.50;;;;;;;;;;5108569;27;24432;-58
2022/01/26 19:32:47;;;;;;;37.33;25.23;;;;;;;;;;5121439;27;24413;-58
2022/01/26 19:51:00;;;;;;;31.10;22.50;;;;;;;;;;5097911;27;24475;-59
2022/01/26 19:53:25;;;;;;;28.07;21.50;;;;;;;;;;5119454;27;24409;-59
2022/01/26 19:55:51;;;;;;;36.05;26.17;;;;;;;;;;5117240;27;24417;-58
2022/01/26 19:58:16;;;;;;;29.90;22.30;;;;;;;;;;5119012;27;24421;-59
2022/01/26 20:00:46;;;;;;;29.40;21.50;;;;;;;;;;5118630;27;24650;-58
2022/01/26 20:03:12;;;;;;;31.48;21.55;;;;;;;;;;5121923;27;24852;-59
2022/01/26 20:05:38;;;;;;;26.23;20.27;;;;;;;;;;5121918;27;24429;-58
2022/01/26 20:08:55;;;;;;;27.80;20.90;;;;;;;;;;5116683;27;24459;-59
2022/01/26 20:10:55;;;;;;;27.80;21.13;;;;;;;;;;5100183;27;24924;-59
2022/01/26 20:13:25;;;;;;;26.58;20.25;;;;;;;;;;5119079;27;24978;-58
2022/01/26 20:15:51;;;;;;;28.10;20.80;;;;;;;;;;5113861;27;24466;-58
2022/01/26 20:18:16;;;;;;;29.90;22.60;;;;;;;;;;5119516;27;24453;-58
2022/01/26 20:20:42;;;;;;;28.15;20.98;;;;;;;;;;5124036;27;24508;-59
2022/01/26 20:23:09;;;;;;;27.73;21.10;;;;;;;;;;5118253;27;24535;-58
2022/01/26 20:25:34;;;;;;;27.20;21.10;;;;;;;;;;5115797;27;25193;-58
2022/01/26 20:28:05;;;;;;;28.95;21.50;;;;;;;;;;5121465;27;24432;-58
2022/01/26 20:30:33;;;;;;;28.42;20.48;;;;;;;;;;5121957;27;24417;-57
2022/01/26 20:32:58;;;;;;;27.20;19.90;;;;;;;;;;5123818;27;24417;-58
2022/01/26 20:35:23;;;;;;;26.90;19.70;;;;;;;;;;5119251;27;24979;-58
2022/01/26 20:37:48;;;;;;;24.40;19.05;;;;;;;;;;5121116;27;24494;-58
2022/01/26 20:40:16;;;;;;;28.30;20.05;;;;;;;;;;5119321;27;24742;-58